sensor_id;sensor_type;location;lat;lon;timestamp;P1;durP1;ratioP1;P2;durP2;ratioP2
61911;SDS011;49973;52.084;5.412;2023-01-29T00:00:16;22.43;;;11.47;;
61911;SDS011;49973;52.084;5.412;2023-01-29T00:02:49;19.87;;;11.47;;
61911;SDS011;49973;52.084;5.412;2023-01-29T00:05:18;17.33;;;10.03;;
61911;SDS011;49973;52.084;5.412;2023-01-29T00:07:53;17.50;;;9.87;;
61911;SDS011;49973;52.084;5.412;2023-01-29T00:10:22;21.57;;;11.33;;
61911;SDS011;49973;52.084;5.412;2023-01-29T00:12:52;17.93;;;10.23;;
61911;SDS011;49973;52.084;5.412;2023-01-29T00:15:21;19.93;;;10.80;;
61911;SDS011;49973;52.084;5.412;2023-01-29T00:17:51;22.20;;;11.00;;
61911;SDS011;49973;52.084;5.412;2023-01-29T00:20:20;20.77;;;10.83;;
61911;SDS011;49973;52.084;5.412;2023-01-29T00:22:48;22.37;;;12.50;;
61911;SDS011;49973;52.084;5.412;2023-01-29T00:25:17;19.27;;;10.87;;
61911;SDS011;49973;52.084;5.412;2023-01-29T00:27:46;22.43;;;12.50;;
61911;SDS011;49973;52.084;5.412;2023-01-29T00:30:14;22.10;;;12.30;;
61911;SDS011;49973;52.084;5.412;2023-01-29T00:32:45;19.73;;;11.23;;
61911;SDS011;49973;52.084;5.412;2023-01-29T00:35:16;28.87;;;12.53;;
61911;SDS011;49973;52.084;5.412;2023-01-29T00:37:45;20.60;;;11.67;;
61911;SDS011;49973;52.084;5.412;2023-01-29T00:40:13;22.57;;;11.93;;
61911;SDS011;49973;52.084;5.412;2023-01-29T00:42:44;25.53;;;12.20;;
61911;SDS011;49973;52.084;5.412;2023-01-29T00:45:31;23.97;;;12.03;;
61911;SDS011;49973;52.084;5.412;2023-01-29T00:47:59;18.87;;;10.03;;
61911;SDS011;49973;52.084;5.412;2023-01-29T00:50:30;19.60;;;11.23;;
61911;SDS011;49973;52.084;5.412;2023-01-29T00:52:59;27.57;;;15.47;;
61911;SDS011;49973;52.084;5.412;2023-01-29T00:55:28;33.20;;;16.50;;
61911;SDS011;49973;52.084;5.412;2023-01-29T00:57:57;33.93;;;20.60;;
61911;SDS011;49973;52.084;5.412;2023-01-29T01:00:26;23.53;;;13.33;;
61911;SDS011;49973;52.084;5.412;2023-01-29T01:02:54;21.17;;;12.47;;
61911;SDS011;49973;52.084;5.412;2023-01-29T01:05:35;19.33;;;11.07;;
61911;SDS011;49973;52.084;5.412;2023-01-29T01:08:05;27.23;;;13.67;;
61911;SDS011;49973;52.084;5.412;2023-01-29T01:10:58;25.13;;;16.07;;
61911;SDS011;49973;52.084;5.412;2023-01-29T01:13:26;25.53;;;12.03;;
61911;SDS011;49973;52.084;5.412;2023-01-29T01:15:56;21.27;;;11.90;;
61911;SDS011;49973;52.084;5.412;2023-01-29T01:18:27;20.77;;;11.37;;
61911;SDS011;49973;52.084;5.412;2023-01-29T01:20:58;21.03;;;11.73;;
61911;SDS011;49973;52.084;5.412;2023-01-29T01:23:27;19.33;;;11.33;;
61911;SDS011;49973;52.084;5.412;2023-01-29T01:25:56;20.50;;;11.43;;
61911;SDS011;49973;52.084;5.412;2023-01-29T01:28:25;20.27;;;11.77;;
61911;SDS011;49973;52.084;5.412;2023-01-29T01:30:54;19.13;;;10.67;;
61911;SDS011;49973;52.084;5.412;2023-01-29T01:33:22;19.70;;;11.60;;
61911;SDS011;49973;52.084;5.412;2023-01-29T01:35:51;20.07;;;9.70;;
61911;SDS011;49973;52.084;5.412;2023-01-29T01:38:22;22.90;;;11.77;;
61911;SDS011;49973;52.084;5.412;2023-01-29T01:40:50;20.63;;;10.60;;
61911;SDS011;49973;52.084;5.412;2023-01-29T01:43:19;19.33;;;10.87;;
61911;SDS011;49973;52.084;5.412;2023-01-29T01:45:48;20.23;;;10.60;;
61911;SDS011;49973;52.084;5.412;2023-01-29T01:48:17;20.53;;;11.07;;
61911;SDS011;49973;52.084;5.412;2023-01-29T01:50:49;18.67;;;10.83;;
61911;SDS011;49973;52.084;5.412;2023-01-29T01:53:21;19.07;;;10.27;;
61911;SDS011;49973;52.084;5.412;2023-01-29T01:55:58;20.27;;;10.93;;
61911;SDS011;49973;52.084;5.412;2023-01-29T01:58:31;20.13;;;10.73;;
61911;SDS011;49973;52.084;5.412;2023-01-29T02:01:02;16.87;;;10.40;;
61911;SDS011;49973;52.084;5.412;2023-01-29T02:03:34;29.33;;;12.50;;
61911;SDS011;49973;52.084;5.412;2023-01-29T02:06:26;21.93;;;11.77;;
61911;SDS011;49973;52.084;5.412;2023-01-29T02:09:14;20.70;;;10.77;;
61911;SDS011;49973;52.084;5.412;2023-01-29T02:11:59;22.23;;;12.43;;
61911;SDS011;49973;52.084;5.412;2023-01-29T02:14:28;21.27;;;11.23;;
61911;SDS011;49973;52.084;5.412;2023-01-29T02:16:58;19.47;;;11.20;;
61911;SDS011;49973;52.084;5.412;2023-01-29T02:19:31;21.53;;;11.20;;
61911;SDS011;49973;52.084;5.412;2023-01-29T02:22:17;18.13;;;10.23;;
61911;SDS011;49973;52.084;5.412;2023-01-29T02:25:10;22.63;;;11.20;;
61911;SDS011;49973;52.084;5.412;2023-01-29T02:28:06;17.77;;;9.97;;
61911;SDS011;49973;52.084;5.412;2023-01-29T02:30:49;20.43;;;11.20;;
61911;SDS011;49973;52.084;5.412;2023-01-29T02:33:25;20.60;;;10.37;;
61911;SDS011;49973;52.084;5.412;2023-01-29T02:36:06;19.60;;;10.80;;
61911;SDS011;49973;52.084;5.412;2023-01-29T02:38:44;22.20;;;11.13;;
61911;SDS011;49973;52.084;5.412;2023-01-29T02:41:20;18.70;;;10.80;;
61911;SDS011;49973;52.084;5.412;2023-01-29T02:43:56;23.10;;;11.40;;
61911;SDS011;49973;52.084;5.412;2023-01-29T02:46:33;22.47;;;11.67;;
61911;SDS011;49973;52.084;5.412;2023-01-29T02:49:07;21.07;;;10.23;;
61911;SDS011;49973;52.084;5.412;2023-01-29T02:51:41;17.60;;;10.07;;
61911;SDS011;49973;52.084;5.412;2023-01-29T02:54:16;18.93;;;10.50;;
61911;SDS011;49973;52.084;5.412;2023-01-29T02:56:50;19.97;;;10.47;;
61911;SDS011;49973;52.084;5.412;2023-01-29T02:59:25;21.57;;;10.37;;
61911;SDS011;49973;52.084;5.412;2023-01-29T03:02:01;18.13;;;10.30;;
61911;SDS011;49973;52.084;5.412;2023-01-29T03:04:35;21.30;;;11.37;;
61911;SDS011;49973;52.084;5.412;2023-01-29T03:07:12;20.57;;;11.07;;
61911;SDS011;49973;52.084;5.412;2023-01-29T03:10:14;19.17;;;11.37;;
61911;SDS011;49973;52.084;5.412;2023-01-29T03:12:46;25.50;;;11.10;;
61911;SDS011;49973;52.084;5.412;2023-01-29T03:15:23;20.80;;;11.97;;
61911;SDS011;49973;52.084;5.412;2023-01-29T03:18:16;22.83;;;13.03;;
61911;SDS011;49973;52.084;5.412;2023-01-29T03:20:54;22.50;;;11.60;;
61911;SDS011;49973;52.084;5.412;2023-01-29T03:23:28;22.20;;;10.60;;
61911;SDS011;49973;52.084;5.412;2023-01-29T03:26:17;31.20;;;12.83;;
61911;SDS011;49973;52.084;5.412;2023-01-29T03:29:06;28.40;;;11.17;;
61911;SDS011;49973;52.084;5.412;2023-01-29T03:31:56;24.77;;;12.17;;
61911;SDS011;49973;52.084;5.412;2023-01-29T03:34:32;23.67;;;12.63;;
61911;SDS011;49973;52.084;5.412;2023-01-29T03:37:10;27.50;;;12.13;;
61911;SDS011;49973;52.084;5.412;2023-01-29T03:39:44;27.87;;;12.83;;
61911;SDS011;49973;52.084;5.412;2023-01-29T03:42:15;23.23;;;11.57;;
61911;SDS011;49973;52.084;5.412;2023-01-29T03:44:53;25.03;;;12.17;;
61911;SDS011;49973;52.084;5.412;2023-01-29T03:47:34;24.90;;;12.37;;
61911;SDS011;49973;52.084;5.412;2023-01-29T03:50:11;20.37;;;11.83;;
61911;SDS011;49973;52.084;5.412;2023-01-29T03:52:53;24.30;;;12.00;;
61911;SDS011;49973;52.084;5.412;2023-01-29T03:55:30;24.60;;;11.37;;
61911;SDS011;49973;52.084;5.412;2023-01-29T03:58:03;24.07;;;11.90;;
61911;SDS011;49973;52.084;5.412;2023-01-29T04:00:39;18.80;;;11.10;;
61911;SDS011;49973;52.084;5.412;2023-01-29T04:03:14;20.83;;;11.67;;
61911;SDS011;49973;52.084;5.412;2023-01-29T04:05:48;23.27;;;12.23;;
61911;SDS011;49973;52.084;5.412;2023-01-29T04:08:33;24.93;;;12.67;;
61911;SDS011;49973;52.084;5.412;2023-01-29T04:11:10;25.63;;;12.80;;
61911;SDS011;49973;52.084;5.412;2023-01-29T04:13:42;26.20;;;12.47;;
61911;SDS011;49973;52.084;5.412;2023-01-29T04:16:16;23.83;;;14.03;;
61911;SDS011;49973;52.084;5.412;2023-01-29T04:19:11;27.10;;;11.93;;
61911;SDS011;49973;52.084;5.412;2023-01-29T04:21:41;27.33;;;12.67;;
61911;SDS011;49973;52.084;5.412;2023-01-29T04:24:12;26.43;;;12.73;;
61911;SDS011;49973;52.084;5.412;2023-01-29T04:26:50;22.63;;;12.57;;
61911;SDS011;49973;52.084;5.412;2023-01-29T04:29:28;23.70;;;12.80;;
61911;SDS011;49973;52.084;5.412;2023-01-29T04:32:10;25.77;;;12.40;;
61911;SDS011;49973;52.084;5.412;2023-01-29T04:34:50;22.43;;;12.03;;
61911;SDS011;49973;52.084;5.412;2023-01-29T04:37:32;23.47;;;13.10;;
61911;SDS011;49973;52.084;5.412;2023-01-29T04:40:08;26.60;;;13.10;;
61911;SDS011;49973;52.084;5.412;2023-01-29T04:42:47;28.87;;;12.90;;
61911;SDS011;49973;52.084;5.412;2023-01-29T04:45:23;23.20;;;12.70;;
61911;SDS011;49973;52.084;5.412;2023-01-29T04:47:59;24.47;;;12.20;;
61911;SDS011;49973;52.084;5.412;2023-01-29T04:50:40;23.90;;;12.50;;
61911;SDS011;49973;52.084;5.412;2023-01-29T04:53:14;18.30;;;11.63;;
61911;SDS011;49973;52.084;5.412;2023-01-29T04:55:50;22.40;;;12.60;;
61911;SDS011;49973;52.084;5.412;2023-01-29T04:58:25;21.20;;;12.47;;
61911;SDS011;49973;52.084;5.412;2023-01-29T05:00:59;23.67;;;12.90;;
61911;SDS011;49973;52.084;5.412;2023-01-29T05:03:31;24.10;;;12.53;;
61911;SDS011;49973;52.084;5.412;2023-01-29T05:06:05;22.07;;;12.10;;
61911;SDS011;49973;52.084;5.412;2023-01-29T05:08:37;26.40;;;13.63;;
61911;SDS011;49973;52.084;5.412;2023-01-29T05:11:07;24.23;;;13.57;;
61911;SDS011;49973;52.084;5.412;2023-01-29T05:13:37;24.20;;;13.80;;
61911;SDS011;49973;52.084;5.412;2023-01-29T05:16:10;26.77;;;13.27;;
61911;SDS011;49973;52.084;5.412;2023-01-29T05:18:42;23.87;;;13.33;;
61911;SDS011;49973;52.084;5.412;2023-01-29T05:21:12;26.13;;;13.37;;
61911;SDS011;49973;52.084;5.412;2023-01-29T05:23:41;24.97;;;12.43;;
61911;SDS011;49973;52.084;5.412;2023-01-29T05:26:19;24.93;;;13.40;;
61911;SDS011;49973;52.084;5.412;2023-01-29T05:29:05;25.37;;;12.33;;
61911;SDS011;49973;52.084;5.412;2023-01-29T05:31:34;24.80;;;12.77;;
61911;SDS011;49973;52.084;5.412;2023-01-29T05:34:03;23.77;;;13.90;;
61911;SDS011;49973;52.084;5.412;2023-01-29T05:36:33;20.60;;;11.07;;
61911;SDS011;49973;52.084;5.412;2023-01-29T05:39:02;20.80;;;12.10;;
61911;SDS011;49973;52.084;5.412;2023-01-29T05:41:30;24.37;;;12.23;;
61911;SDS011;49973;52.084;5.412;2023-01-29T05:43:59;19.47;;;12.20;;
61911;SDS011;49973;52.084;5.412;2023-01-29T05:46:28;21.33;;;12.50;;
61911;SDS011;49973;52.084;5.412;2023-01-29T05:48:56;26.43;;;13.17;;
61911;SDS011;49973;52.084;5.412;2023-01-29T05:51:25;18.53;;;11.87;;
61911;SDS011;49973;52.084;5.412;2023-01-29T05:53:55;22.93;;;13.30;;
61911;SDS011;49973;52.084;5.412;2023-01-29T05:56:24;22.30;;;12.93;;
61911;SDS011;49973;52.084;5.412;2023-01-29T05:58:53;22.73;;;12.93;;
61911;SDS011;49973;52.084;5.412;2023-01-29T06:01:23;20.57;;;12.30;;
61911;SDS011;49973;52.084;5.412;2023-01-29T06:03:52;21.00;;;12.97;;
61911;SDS011;49973;52.084;5.412;2023-01-29T06:06:21;22.70;;;12.57;;
61911;SDS011;49973;52.084;5.412;2023-01-29T06:08:50;24.47;;;12.43;;
61911;SDS011;49973;52.084;5.412;2023-01-29T06:11:20;26.30;;;13.00;;
61911;SDS011;49973;52.084;5.412;2023-01-29T06:13:48;23.63;;;12.03;;
61911;SDS011;49973;52.084;5.412;2023-01-29T06:16:17;22.97;;;13.50;;
61911;SDS011;49973;52.084;5.412;2023-01-29T06:18:45;24.40;;;12.13;;
61911;SDS011;49973;52.084;5.412;2023-01-29T06:21:14;21.37;;;13.43;;
61911;SDS011;49973;52.084;5.412;2023-01-29T06:23:45;24.17;;;12.87;;
61911;SDS011;49973;52.084;5.412;2023-01-29T06:26:14;24.80;;;11.90;;
61911;SDS011;49973;52.084;5.412;2023-01-29T06:28:46;19.20;;;11.77;;
61911;SDS011;49973;52.084;5.412;2023-01-29T06:31:16;25.60;;;13.20;;
61911;SDS011;49973;52.084;5.412;2023-01-29T06:34:03;21.83;;;11.97;;
61911;SDS011;49973;52.084;5.412;2023-01-29T06:36:32;20.33;;;11.97;;
61911;SDS011;49973;52.084;5.412;2023-01-29T06:39:01;21.47;;;11.93;;
61911;SDS011;49973;52.084;5.412;2023-01-29T06:41:30;20.43;;;11.93;;
61911;SDS011;49973;52.084;5.412;2023-01-29T06:44:00;25.17;;;12.87;;
61911;SDS011;49973;52.084;5.412;2023-01-29T06:46:29;23.80;;;12.03;;
61911;SDS011;49973;52.084;5.412;2023-01-29T06:48:58;19.27;;;11.27;;
61911;SDS011;49973;52.084;5.412;2023-01-29T06:51:27;22.43;;;11.80;;
61911;SDS011;49973;52.084;5.412;2023-01-29T06:53:56;24.13;;;11.90;;
61911;SDS011;49973;52.084;5.412;2023-01-29T06:56:25;20.80;;;11.47;;
61911;SDS011;49973;52.084;5.412;2023-01-29T06:58:53;28.70;;;12.43;;
61911;SDS011;49973;52.084;5.412;2023-01-29T07:01:23;24.33;;;12.67;;
61911;SDS011;49973;52.084;5.412;2023-01-29T07:04:02;20.00;;;11.50;;
61911;SDS011;49973;52.084;5.412;2023-01-29T07:06:31;21.47;;;10.27;;
61911;SDS011;49973;52.084;5.412;2023-01-29T07:08:59;26.43;;;12.20;;
61911;SDS011;49973;52.084;5.412;2023-01-29T07:11:28;18.63;;;11.87;;
61911;SDS011;49973;52.084;5.412;2023-01-29T07:13:57;19.47;;;11.37;;
61911;SDS011;49973;52.084;5.412;2023-01-29T07:16:27;18.97;;;10.67;;
61911;SDS011;49973;52.084;5.412;2023-01-29T07:18:56;21.27;;;11.20;;
61911;SDS011;49973;52.084;5.412;2023-01-29T07:21:25;19.87;;;10.80;;
61911;SDS011;49973;52.084;5.412;2023-01-29T07:23:53;20.10;;;11.90;;
61911;SDS011;49973;52.084;5.412;2023-01-29T07:26:22;22.73;;;11.90;;
61911;SDS011;49973;52.084;5.412;2023-01-29T07:28:51;19.47;;;11.03;;
61911;SDS011;49973;52.084;5.412;2023-01-29T07:31:19;19.00;;;11.30;;
61911;SDS011;49973;52.084;5.412;2023-01-29T07:33:50;17.47;;;10.60;;
61911;SDS011;49973;52.084;5.412;2023-01-29T07:36:18;25.40;;;12.47;;
61911;SDS011;49973;52.084;5.412;2023-01-29T07:38:47;17.73;;;11.00;;
61911;SDS011;49973;52.084;5.412;2023-01-29T07:41:17;24.73;;;13.60;;
61911;SDS011;49973;52.084;5.412;2023-01-29T07:43:46;17.00;;;11.13;;
61911;SDS011;49973;52.084;5.412;2023-01-29T07:46:15;16.93;;;11.10;;
61911;SDS011;49973;52.084;5.412;2023-01-29T07:48:44;19.93;;;11.90;;
61911;SDS011;49973;52.084;5.412;2023-01-29T07:51:13;21.50;;;11.63;;
61911;SDS011;49973;52.084;5.412;2023-01-29T07:53:44;19.20;;;11.70;;
61911;SDS011;49973;52.084;5.412;2023-01-29T07:56:13;18.87;;;11.20;;
61911;SDS011;49973;52.084;5.412;2023-01-29T07:58:41;20.83;;;11.67;;
61911;SDS011;49973;52.084;5.412;2023-01-29T08:01:10;22.17;;;10.80;;
61911;SDS011;49973;52.084;5.412;2023-01-29T08:03:39;24.30;;;11.93;;
61911;SDS011;49973;52.084;5.412;2023-01-29T08:06:07;21.80;;;10.70;;
61911;SDS011;49973;52.084;5.412;2023-01-29T08:08:37;24.00;;;12.07;;
61911;SDS011;49973;52.084;5.412;2023-01-29T08:11:06;19.40;;;11.87;;
61911;SDS011;49973;52.084;5.412;2023-01-29T08:13:35;19.93;;;11.47;;
61911;SDS011;49973;52.084;5.412;2023-01-29T08:16:04;20.57;;;12.23;;
61911;SDS011;49973;52.084;5.412;2023-01-29T08:18:33;22.93;;;11.57;;
61911;SDS011;49973;52.084;5.412;2023-01-29T08:21:04;18.67;;;11.47;;
61911;SDS011;49973;52.084;5.412;2023-01-29T08:23:32;20.97;;;11.90;;
61911;SDS011;49973;52.084;5.412;2023-01-29T08:26:02;20.90;;;11.97;;
61911;SDS011;49973;52.084;5.412;2023-01-29T08:28:31;21.53;;;11.83;;
61911;SDS011;49973;52.084;5.412;2023-01-29T08:31:01;24.37;;;11.63;;
61911;SDS011;49973;52.084;5.412;2023-01-29T08:33:29;23.07;;;11.53;;
61911;SDS011;49973;52.084;5.412;2023-01-29T08:36:05;20.27;;;11.43;;
61911;SDS011;49973;52.084;5.412;2023-01-29T08:38:35;22.90;;;11.20;;
61911;SDS011;49973;52.084;5.412;2023-01-29T08:41:05;20.83;;;11.83;;
61911;SDS011;49973;52.084;5.412;2023-01-29T08:43:34;22.73;;;11.83;;
61911;SDS011;49973;52.084;5.412;2023-01-29T08:46:04;22.20;;;11.53;;
61911;SDS011;49973;52.084;5.412;2023-01-29T08:48:34;20.23;;;10.73;;
61911;SDS011;49973;52.084;5.412;2023-01-29T08:51:02;16.33;;;10.77;;
61911;SDS011;49973;52.084;5.412;2023-01-29T08:53:31;19.80;;;10.93;;
61911;SDS011;49973;52.084;5.412;2023-01-29T08:56:00;22.67;;;12.17;;
61911;SDS011;49973;52.084;5.412;2023-01-29T08:58:30;21.00;;;11.43;;
61911;SDS011;49973;52.084;5.412;2023-01-29T09:01:04;21.97;;;12.57;;
61911;SDS011;49973;52.084;5.412;2023-01-29T09:03:33;19.87;;;11.80;;
61911;SDS011;49973;52.084;5.412;2023-01-29T09:06:02;22.47;;;11.90;;
61911;SDS011;49973;52.084;5.412;2023-01-29T09:08:31;20.37;;;11.07;;
61911;SDS011;49973;52.084;5.412;2023-01-29T09:11:01;22.43;;;11.43;;
61911;SDS011;49973;52.084;5.412;2023-01-29T09:13:31;24.33;;;11.33;;
61911;SDS011;49973;52.084;5.412;2023-01-29T09:16:00;22.70;;;11.13;;
61911;SDS011;49973;52.084;5.412;2023-01-29T09:18:29;20.80;;;12.17;;
61911;SDS011;49973;52.084;5.412;2023-01-29T09:20:58;18.03;;;10.17;;
61911;SDS011;49973;52.084;5.412;2023-01-29T09:23:28;19.73;;;11.27;;
61911;SDS011;49973;52.084;5.412;2023-01-29T09:25:57;18.90;;;10.93;;
61911;SDS011;49973;52.084;5.412;2023-01-29T09:28:26;19.17;;;10.30;;
61911;SDS011;49973;52.084;5.412;2023-01-29T09:30:59;21.33;;;12.00;;
61911;SDS011;49973;52.084;5.412;2023-01-29T09:33:28;19.73;;;10.63;;
61911;SDS011;49973;52.084;5.412;2023-01-29T09:35:58;20.80;;;12.03;;
61911;SDS011;49973;52.084;5.412;2023-01-29T09:38:26;18.00;;;10.30;;
61911;SDS011;49973;52.084;5.412;2023-01-29T09:40:57;20.50;;;11.63;;
61911;SDS011;49973;52.084;5.412;2023-01-29T09:43:38;20.80;;;11.53;;
61911;SDS011;49973;52.084;5.412;2023-01-29T09:46:16;20.13;;;11.00;;
61911;SDS011;49973;52.084;5.412;2023-01-29T09:48:49;19.50;;;12.17;;
61911;SDS011;49973;52.084;5.412;2023-01-29T09:51:25;19.67;;;11.50;;
61911;SDS011;49973;52.084;5.412;2023-01-29T09:54:01;17.80;;;10.80;;
61911;SDS011;49973;52.084;5.412;2023-01-29T09:56:38;19.97;;;11.30;;
61911;SDS011;49973;52.084;5.412;2023-01-29T09:59:09;21.10;;;10.90;;
61911;SDS011;49973;52.084;5.412;2023-01-29T10:01:43;21.50;;;11.70;;
61911;SDS011;49973;52.084;5.412;2023-01-29T10:04:26;20.40;;;10.80;;
61911;SDS011;49973;52.084;5.412;2023-01-29T10:07:15;20.33;;;11.10;;
61911;SDS011;49973;52.084;5.412;2023-01-29T10:09:59;18.97;;;11.27;;
61911;SDS011;49973;52.084;5.412;2023-01-29T10:12:39;15.17;;;10.70;;
61911;SDS011;49973;52.084;5.412;2023-01-29T10:15:20;16.93;;;10.97;;
61911;SDS011;49973;52.084;5.412;2023-01-29T10:18:06;18.50;;;10.40;;
61911;SDS011;49973;52.084;5.412;2023-01-29T10:21:10;19.03;;;11.17;;
61911;SDS011;49973;52.084;5.412;2023-01-29T10:23:56;18.17;;;10.20;;
61911;SDS011;49973;52.084;5.412;2023-01-29T10:26:32;16.97;;;10.47;;
61911;SDS011;49973;52.084;5.412;2023-01-29T10:29:04;23.60;;;12.57;;
61911;SDS011;49973;52.084;5.412;2023-01-29T10:31:35;20.77;;;11.40;;
61911;SDS011;49973;52.084;5.412;2023-01-29T10:34:11;22.03;;;10.87;;
61911;SDS011;49973;52.084;5.412;2023-01-29T10:36:44;17.17;;;11.07;;
61911;SDS011;49973;52.084;5.412;2023-01-29T10:39:14;18.63;;;10.93;;
61911;SDS011;49973;52.084;5.412;2023-01-29T10:41:47;20.27;;;11.80;;
61911;SDS011;49973;52.084;5.412;2023-01-29T10:44:36;21.70;;;12.03;;
61911;SDS011;49973;52.084;5.412;2023-01-29T10:47:26;21.27;;;11.23;;
61911;SDS011;49973;52.084;5.412;2023-01-29T10:50:24;19.10;;;11.20;;
61911;SDS011;49973;52.084;5.412;2023-01-29T10:55:57;24.20;;;11.53;;
61911;SDS011;49973;52.084;5.412;2023-01-29T10:58:48;23.37;;;11.97;;
61911;SDS011;49973;52.084;5.412;2023-01-29T11:01:19;23.43;;;12.27;;
61911;SDS011;49973;52.084;5.412;2023-01-29T11:03:51;17.67;;;11.30;;
61911;SDS011;49973;52.084;5.412;2023-01-29T11:06:26;20.50;;;11.30;;
61911;SDS011;49973;52.084;5.412;2023-01-29T11:08:58;23.43;;;12.83;;
61911;SDS011;49973;52.084;5.412;2023-01-29T11:11:35;24.03;;;13.13;;
61911;SDS011;49973;52.084;5.412;2023-01-29T11:14:09;25.20;;;12.30;;
61911;SDS011;49973;52.084;5.412;2023-01-29T11:16:41;18.63;;;11.77;;
61911;SDS011;49973;52.084;5.412;2023-01-29T11:19:11;25.43;;;12.77;;
61911;SDS011;49973;52.084;5.412;2023-01-29T11:21:51;22.10;;;12.47;;
61911;SDS011;49973;52.084;5.412;2023-01-29T11:24:23;24.23;;;12.83;;
61911;SDS011;49973;52.084;5.412;2023-01-29T11:26:53;21.77;;;11.67;;
61911;SDS011;49973;52.084;5.412;2023-01-29T11:29:36;20.60;;;11.80;;
61911;SDS011;49973;52.084;5.412;2023-01-29T11:32:06;24.93;;;13.00;;
61911;SDS011;49973;52.084;5.412;2023-01-29T11:34:56;23.43;;;13.13;;
61911;SDS011;49973;52.084;5.412;2023-01-29T11:37:34;22.77;;;12.70;;
61911;SDS011;49973;52.084;5.412;2023-01-29T11:45:58;19.10;;;12.13;;
61911;SDS011;49973;52.084;5.412;2023-01-29T11:48:31;25.63;;;13.93;;
61911;SDS011;49973;52.084;5.412;2023-01-29T11:51:07;22.40;;;12.93;;
61911;SDS011;49973;52.084;5.412;2023-01-29T11:53:41;24.00;;;12.37;;
61911;SDS011;49973;52.084;5.412;2023-01-29T11:56:16;21.37;;;12.67;;
61911;SDS011;49973;52.084;5.412;2023-01-29T11:58:49;26.20;;;14.20;;
61911;SDS011;49973;52.084;5.412;2023-01-29T12:01:23;31.13;;;13.53;;
61911;SDS011;49973;52.084;5.412;2023-01-29T12:03:58;25.47;;;15.33;;
61911;SDS011;49973;52.084;5.412;2023-01-29T12:06:30;30.07;;;13.47;;
61911;SDS011;49973;52.084;5.412;2023-01-29T12:09:08;24.93;;;13.73;;
61911;SDS011;49973;52.084;5.412;2023-01-29T12:11:41;23.40;;;13.37;;
61911;SDS011;49973;52.084;5.412;2023-01-29T12:14:21;26.10;;;13.83;;
61911;SDS011;49973;52.084;5.412;2023-01-29T12:16:55;27.40;;;13.53;;
61911;SDS011;49973;52.084;5.412;2023-01-29T12:19:26;30.00;;;15.67;;
61911;SDS011;49973;52.084;5.412;2023-01-29T12:22:02;22.60;;;13.67;;
61911;SDS011;49973;52.084;5.412;2023-01-29T12:24:35;29.33;;;14.10;;
61911;SDS011;49973;52.084;5.412;2023-01-29T12:27:11;25.03;;;14.33;;
61911;SDS011;49973;52.084;5.412;2023-01-29T12:29:44;23.60;;;14.97;;
61911;SDS011;49973;52.084;5.412;2023-01-29T12:32:21;26.07;;;14.73;;
61911;SDS011;49973;52.084;5.412;2023-01-29T12:34:56;25.53;;;14.47;;
61911;SDS011;49973;52.084;5.412;2023-01-29T12:37:37;26.50;;;13.70;;
61911;SDS011;49973;52.084;5.412;2023-01-29T12:40:14;24.20;;;14.23;;
61911;SDS011;49973;52.084;5.412;2023-01-29T12:42:45;24.47;;;13.33;;
61911;SDS011;49973;52.084;5.412;2023-01-29T12:45:17;30.20;;;14.57;;
61911;SDS011;49973;52.084;5.412;2023-01-29T12:47:48;24.10;;;13.30;;
61911;SDS011;49973;52.084;5.412;2023-01-29T12:50:19;28.07;;;15.13;;
61911;SDS011;49973;52.084;5.412;2023-01-29T12:52:51;24.90;;;12.93;;
61911;SDS011;49973;52.084;5.412;2023-01-29T12:55:24;26.47;;;14.37;;
61911;SDS011;49973;52.084;5.412;2023-01-29T12:58:00;26.27;;;14.77;;
61911;SDS011;49973;52.084;5.412;2023-01-29T13:00:31;24.07;;;13.87;;
61911;SDS011;49973;52.084;5.412;2023-01-29T13:03:02;26.60;;;15.73;;
61911;SDS011;49973;52.084;5.412;2023-01-29T13:05:43;25.83;;;15.20;;
61911;SDS011;49973;52.084;5.412;2023-01-29T13:08:15;28.73;;;16.87;;
61911;SDS011;49973;52.084;5.412;2023-01-29T13:10:49;28.60;;;15.40;;
61911;SDS011;49973;52.084;5.412;2023-01-29T13:13:21;28.90;;;14.57;;
61911;SDS011;49973;52.084;5.412;2023-01-29T13:15:55;33.87;;;14.93;;
61911;SDS011;49973;52.084;5.412;2023-01-29T13:18:31;23.80;;;14.10;;
61911;SDS011;49973;52.084;5.412;2023-01-29T13:21:08;32.23;;;16.90;;
61911;SDS011;49973;52.084;5.412;2023-01-29T13:23:41;28.27;;;13.93;;
61911;SDS011;49973;52.084;5.412;2023-01-29T13:26:17;26.73;;;15.03;;
61911;SDS011;49973;52.084;5.412;2023-01-29T13:28:47;31.57;;;16.50;;
61911;SDS011;49973;52.084;5.412;2023-01-29T13:31:18;24.47;;;13.77;;
61911;SDS011;49973;52.084;5.412;2023-01-29T13:34:03;26.57;;;14.70;;
61911;SDS011;49973;52.084;5.412;2023-01-29T13:36:36;30.13;;;14.90;;
61911;SDS011;49973;52.084;5.412;2023-01-29T13:39:16;27.30;;;15.77;;
61911;SDS011;49973;52.084;5.412;2023-01-29T13:41:50;29.53;;;15.83;;
61911;SDS011;49973;52.084;5.412;2023-01-29T13:44:21;29.83;;;15.90;;
61911;SDS011;49973;52.084;5.412;2023-01-29T13:46:53;26.70;;;15.10;;
61911;SDS011;49973;52.084;5.412;2023-01-29T13:49:26;27.73;;;15.20;;
61911;SDS011;49973;52.084;5.412;2023-01-29T13:51:58;31.27;;;16.17;;
61911;SDS011;49973;52.084;5.412;2023-01-29T13:54:41;26.20;;;14.37;;
61911;SDS011;49973;52.084;5.412;2023-01-29T14:06:35;24.90;;;14.43;;
61911;SDS011;49973;52.084;5.412;2023-01-29T14:09:28;22.83;;;13.40;;
61911;SDS011;49973;52.084;5.412;2023-01-29T14:18:12;26.80;;;13.77;;
61911;SDS011;49973;52.084;5.412;2023-01-29T14:20:50;26.80;;;14.57;;
61911;SDS011;49973;52.084;5.412;2023-01-29T14:23:26;32.93;;;14.37;;
61911;SDS011;49973;52.084;5.412;2023-01-29T14:26:01;24.93;;;13.90;;
61911;SDS011;49973;52.084;5.412;2023-01-29T14:28:33;26.50;;;13.77;;
61911;SDS011;49973;52.084;5.412;2023-01-29T14:31:03;24.03;;;13.07;;
61911;SDS011;49973;52.084;5.412;2023-01-29T14:33:34;25.37;;;13.77;;
61911;SDS011;49973;52.084;5.412;2023-01-29T14:36:08;27.67;;;12.93;;
61911;SDS011;49973;52.084;5.412;2023-01-29T14:38:39;23.20;;;13.57;;
61911;SDS011;49973;52.084;5.412;2023-01-29T14:41:21;25.77;;;13.27;;
61911;SDS011;49973;52.084;5.412;2023-01-29T14:46:56;21.57;;;13.23;;
61911;SDS011;49973;52.084;5.412;2023-01-29T14:52:16;23.37;;;14.53;;
61911;SDS011;49973;52.084;5.412;2023-01-29T14:54:48;22.67;;;13.47;;
61911;SDS011;49973;52.084;5.412;2023-01-29T14:57:19;28.20;;;14.63;;
61911;SDS011;49973;52.084;5.412;2023-01-29T14:59:52;26.57;;;13.83;;
61911;SDS011;49973;52.084;5.412;2023-01-29T15:02:25;28.27;;;13.30;;
61911;SDS011;49973;52.084;5.412;2023-01-29T15:04:59;22.60;;;13.20;;
61911;SDS011;49973;52.084;5.412;2023-01-29T15:07:33;22.77;;;12.57;;
61911;SDS011;49973;52.084;5.412;2023-01-29T15:10:05;26.40;;;15.07;;
61911;SDS011;49973;52.084;5.412;2023-01-29T15:12:50;23.67;;;14.00;;
61911;SDS011;49973;52.084;5.412;2023-01-29T15:15:27;27.43;;;14.63;;
61911;SDS011;49973;52.084;5.412;2023-01-29T15:18:04;24.10;;;13.07;;
61911;SDS011;49973;52.084;5.412;2023-01-29T15:20:36;21.17;;;12.93;;
61911;SDS011;49973;52.084;5.412;2023-01-29T15:25:53;22.30;;;13.13;;
61911;SDS011;49973;52.084;5.412;2023-01-29T15:28:24;27.23;;;12.93;;
61911;SDS011;49973;52.084;5.412;2023-01-29T15:30:54;21.87;;;12.20;;